Time;durP1;ratioP1;P1;durP2;ratioP2;P2;SDS_P1;SDS_P2;PMS_P1;PMS_P2;Temp;Humidity;BMP_temperature;BMP_pressure;BME280_temperature;BME280_humidity;BME280_pressure;Samples;Min_cycle;Max_cycle;Signal;HPM_P1;HPM_P2
2023/04/24 00:00:58;;;;;;;9.32;6.72;;;11.20;99.90;;;;;;5038345;28;20104;-60
2023/04/24 00:03:24;;;;;;;9.75;5.85;;;11.30;99.90;;;;;;5038189;28;20057;-58
2023/04/24 00:05:51;;;;;;;10.98;6.20;;;11.00;99.90;;;;;;5038331;28;20045;-58
2023/04/24 00:08:17;;;;;;;8.48;6.10;;;11.30;99.90;;;;;;5037587;28;20531;-58
2023/04/24 00:10:43;;;;;;;9.85;6.30;;;10.90;99.90;;;;;;5038219;28;20048;-58
2023/04/24 00:13:08;;;;;;;9.48;6.15;;;10.90;99.90;;;;;;5038106;28;20049;-58
2023/04/24 00:15:34;;;;;;;9.07;5.72;;;11.30;99.90;;;;;;5020250;28;20041;-59
2023/04/24 00:18:01;;;;;;;11.00;6.20;;;10.90;99.90;;;;;;5037843;28;20081;-59
2023/04/24 00:20:29;;;;;;;9.65;5.70;;;11.20;99.90;;;;;;5037955;28;20092;-58
2023/04/24 00:22:55;;;;;;;8.85;6.03;;;11.20;99.90;;;;;;5003734;28;20042;-58
2023/04/24 00:25:21;;;;;;;10.57;6.05;;;11.00;99.90;;;;;;5037544;28;20053;-58
2023/04/24 00:27:46;;;;;;;9.43;6.25;;;11.20;99.90;;;;;;5037768;28;20417;-58
2023/04/24 00:30:12;;;;;;;8.80;5.97;;;11.20;99.90;;;;;;5037866;28;20046;-58
2023/04/24 00:32:38;;;;;;;8.70;6.20;;;11.20;99.90;;;;;;5037495;28;20049;-58
2023/04/24 00:35:05;;;;;;;8.50;6.28;;;11.30;99.90;;;;;;5037889;28;20045;-57
2023/04/24 00:37:31;;;;;;;9.80;5.88;;;11.00;99.90;;;;;;5037340;28;20476;-58
2023/04/24 00:39:57;;;;;;;9.52;6.15;;;11.20;99.90;;;;;;5037842;28;20038;-58
2023/04/24 00:42:23;;;;;;;8.68;5.70;;;11.20;99.90;;;;;;5037462;28;20101;-58
2023/04/24 00:44:49;;;;;;;8.50;5.75;;;11.10;99.90;;;;;;5037575;28;20108;-57
2023/04/24 00:47:15;;;;;;;9.25;6.10;;;11.10;99.90;;;;;;5037347;28;20034;-58
2023/04/24 00:49:41;;;;;;;10.27;5.65;;;11.20;99.90;;;;;;5037425;28;20053;-58
2023/04/24 00:52:07;;;;;;;8.38;5.75;;;11.00;99.90;;;;;;5037453;28;20121;-58
2023/04/24 00:54:33;;;;;;;9.68;5.93;;;11.20;99.90;;;;;;5037462;28;20041;-58
2023/04/24 00:56:58;;;;;;;9.40;5.63;;;10.90;99.90;;;;;;5037547;28;20041;-57
2023/04/24 00:59:24;;;;;;;8.25;5.45;;;11.20;99.90;;;;;;5037226;28;20064;-58
2023/04/24 01:01:51;;;;;;;9.63;4.75;;;10.90;99.90;;;;;;5037481;28;20057;-58
2023/04/24 01:04:17;;;;;;;7.47;3.42;;;10.70;99.90;;;;;;5040723;28;20046;-57
2023/04/24 01:06:45;;;;;;;5.90;3.30;;;10.80;99.90;;;;;;5041320;28;20049;-57
2023/04/24 01:09:12;;;;;;;6.07;3.40;;;10.90;99.90;;;;;;5041343;28;20049;-58
2023/04/24 01:11:39;;;;;;;6.30;3.30;;;10.70;99.90;;;;;;5041505;28;20049;-58
2023/04/24 01:14:06;;;;;;;6.15;3.50;;;10.60;99.90;;;;;;5041293;28;20084;-58
2023/04/24 01:16:31;;;;;;;5.90;3.17;;;10.80;99.90;;;;;;5041061;28;20066;-57
2023/04/24 01:18:57;;;;;;;8.13;3.60;;;10.80;99.90;;;;;;5041239;28;20418;-58
2023/04/24 01:21:27;;;;;;;5.95;3.10;;;10.70;99.90;;;;;;5041270;28;20057;-58
2023/04/24 01:23:53;;;;;;;6.22;3.53;;;10.80;99.90;;;;;;5041018;28;20041;-58
2023/04/24 01:26:19;;;;;;;6.22;3.42;;;10.60;99.90;;;;;;5041141;28;20065;-58
2023/04/24 01:28:46;;;;;;;6.53;3.58;;;10.80;99.90;;;;;;5041076;28;20049;-58
2023/04/24 01:31:12;;;;;;;6.45;3.25;;;10.70;99.90;;;;;;5041038;28;20041;-58
2023/04/24 01:33:37;;;;;;;5.47;2.95;;;10.60;99.90;;;;;;5040563;28;20072;-57
2023/04/24 01:36:04;;;;;;;6.82;3.25;;;10.50;99.90;;;;;;5040868;28;20042;-58
2023/04/24 01:38:30;;;;;;;6.35;3.40;;;10.70;99.90;;;;;;5022878;28;20049;-58
2023/04/24 01:40:55;;;;;;;5.53;3.13;;;10.80;99.90;;;;;;5040947;28;20033;-58
2023/04/24 01:43:21;;;;;;;7.18;3.42;;;10.60;99.90;;;;;;5041048;28;20038;-58
2023/04/24 01:45:47;;;;;;;6.38;3.10;;;10.70;99.90;;;;;;5041042;28;20109;-58
2023/04/24 01:48:13;;;;;;;7.05;3.45;;;10.60;99.90;;;;;;5040440;28;20125;-58
2023/04/24 01:50:39;;;;;;;6.28;3.47;;;10.80;99.90;;;;;;5040446;28;20060;-58
2023/04/24 01:53:05;;;;;;;5.88;3.15;;;10.70;99.90;;;;;;5040391;28;20053;-57
2023/04/24 01:55:31;;;;;;;6.63;3.03;;;10.70;99.90;;;;;;5040524;28;20041;-58
2023/04/24 01:57:56;;;;;;;6.47;3.28;;;10.40;99.90;;;;;;5040446;28;20041;-57
2023/04/24 02:00:24;;;;;;;6.47;3.55;;;10.60;99.90;;;;;;5040485;28;20033;-57
2023/04/24 02:02:49;;;;;;;7.70;3.45;;;10.70;99.90;;;;;;5040568;28;20041;-57
2023/04/24 02:05:15;;;;;;;6.63;3.05;;;10.60;99.90;;;;;;5040323;28;20615;-58
2023/04/24 02:07:41;;;;;;;6.13;3.35;;;10.30;99.90;;;;;;5040136;28;20541;-58
2023/04/24 02:10:07;;;;;;;6.88;3.53;;;10.30;99.90;;;;;;5022495;28;20108;-58
2023/04/24 02:12:33;;;;;;;5.70;3.08;;;10.20;99.90;;;;;;5040197;28;20041;-57
2023/04/24 02:14:58;;;;;;;6.93;3.20;;;10.20;99.90;;;;;;5039967;28;20236;-58
2023/04/24 02:17:24;;;;;;;5.35;3.15;;;10.50;99.90;;;;;;5040141;28;20068;-57
2023/04/24 02:19:50;;;;;;;5.70;3.55;;;10.20;99.90;;;;;;5040183;28;20477;-58
2023/04/24 02:22:15;;;;;;;6.00;3.58;;;10.40;99.90;;;;;;5040037;28;20049;-58
2023/04/24 02:24:41;;;;;;;5.38;3.60;;;10.20;99.90;;;;;;5039944;28;20056;-57
2023/04/24 02:27:07;;;;;;;6.20;3.30;;;10.40;99.90;;;;;;5039935;28;20045;-58
2023/04/24 02:29:32;;;;;;;5.63;3.08;;;10.50;99.90;;;;;;5039702;28;20038;-58
2023/04/24 02:31:58;;;;;;;6.28;3.28;;;10.50;99.90;;;;;;5039963;28;20087;-58
2023/04/24 02:34:24;;;;;;;7.25;3.80;;;10.50;99.90;;;;;;5039727;28;20108;-57
2023/04/24 02:36:50;;;;;;;6.63;4.03;;;10.50;99.90;;;;;;5039819;28;20108;-57
2023/04/24 02:39:18;;;;;;;6.80;4.10;;;10.30;99.90;;;;;;5039519;28;20053;-57
2023/04/24 02:41:44;;;;;;;7.88;4.57;;;10.30;99.90;;;;;;5039754;28;20105;-57
2023/04/24 02:44:10;;;;;;;7.30;4.30;;;10.20;99.90;;;;;;5039620;28;20045;-58
2023/04/24 02:46:36;;;;;;;7.78;5.38;;;10.40;99.90;;;;;;5039362;28;20049;-58
2023/04/24 02:49:01;;;;;;;8.60;6.35;;;10.50;99.90;;;;;;5039660;28;20080;-58
2023/04/24 02:51:28;;;;;;;7.88;4.97;;;10.10;99.90;;;;;;5039631;28;20037;-57
2023/04/24 02:53:53;;;;;;;8.93;5.63;;;10.60;99.90;;;;;;5039683;28;20544;-57
2023/04/24 02:56:19;;;;;;;7.93;5.07;;;10.50;99.90;;;;;;5039576;28;20045;-57
2023/04/24 02:58:45;;;;;;;8.68;5.38;;;10.20;99.90;;;;;;5039684;28;20045;-57
2023/04/24 03:01:11;;;;;;;8.07;5.93;;;10.40;99.90;;;;;;5039134;28;20500;-57
2023/04/24 03:03:37;;;;;;;8.18;5.97;;;10.40;99.90;;;;;;5039116;28;20077;-57
2023/04/24 03:06:05;;;;;;;9.50;6.07;;;10.20;99.90;;;;;;5039346;28;20033;-57
2023/04/24 03:08:32;;;;;;;9.65;6.85;;;10.40;99.90;;;;;;5039201;28;20046;-57
2023/04/24 03:10:57;;;;;;;9.70;7.18;;;10.20;99.90;;;;;;5039289;28;20046;-57
2023/04/24 03:13:23;;;;;;;9.38;6.78;;;10.30;99.90;;;;;;5039185;28;20038;-57
2023/04/24 03:15:49;;;;;;;9.82;7.07;;;10.10;99.90;;;;;;5039097;28;20049;-57
2023/04/24 03:18:15;;;;;;;11.55;7.38;;;10.40;99.90;;;;;;5038878;28;20060;-57
2023/04/24 03:20:41;;;;;;;10.98;7.38;;;10.10;99.90;;;;;;5038717;28;20052;-57
2023/04/24 03:23:06;;;;;;;11.70;7.95;;;10.20;99.90;;;;;;5039171;28;20053;-57
2023/04/24 03:25:32;;;;;;;10.98;8.38;;;10.40;99.90;;;;;;5037970;28;20047;-57
2023/04/24 03:27:57;;;;;;;12.32;8.63;;;10.10;99.90;;;;;;5038934;28;20861;-56
2023/04/24 03:30:23;;;;;;;12.65;8.88;;;10.10;99.90;;;;;;5038573;28;20045;-57
2023/04/24 03:32:49;;;;;;;12.30;8.55;;;10.40;99.90;;;;;;5038917;28;20154;-57
2023/04/24 03:35:14;;;;;;;12.98;8.90;;;10.50;99.90;;;;;;5038597;28;20041;-57
2023/04/24 03:37:40;;;;;;;12.68;9.23;;;10.50;99.90;;;;;;5038401;28;20049;-57
2023/04/24 03:40:08;;;;;;;14.02;10.65;;;10.10;99.90;;;;;;5038717;28;20050;-57
2023/04/24 03:42:33;;;;;;;13.02;9.27;;;10.30;99.90;;;;;;5038463;28;20049;-57
2023/04/24 03:44:59;;;;;;;14.25;9.57;;;10.50;99.90;;;;;;5038363;28;20076;-57
2023/04/24 03:47:24;;;;;;;13.13;9.50;;;10.20;99.90;;;;;;5038661;28;20472;-57
2023/04/24 03:49:50;;;;;;;14.23;10.57;;;10.60;99.90;;;;;;5038476;28;20072;-57
2023/04/24 03:52:16;;;;;;;13.50;9.95;;;10.40;99.90;;;;;;5038231;28;20046;-57
2023/04/24 03:54:42;;;;;;;16.10;11.52;;;10.50;99.90;;;;;;5038262;28;20056;-56
2023/04/24 03:57:07;;;;;;;14.07;10.60;;;10.60;99.90;;;;;;5038442;28;20038;-57
2023/04/24 03:59:33;;;;;;;15.18;11.40;;;10.20;99.90;;;;;;5020138;28;20097;-57
2023/04/24 04:01:59;;;;;;;14.35;10.80;;;10.10;99.90;;;;;;5038294;28;20053;-57
2023/04/24 04:04:24;;;;;;;16.17;11.68;;;10.30;99.90;;;;;;5038467;28;20040;-57
2023/04/24 04:06:50;;;;;;;17.30;11.48;;;10.40;99.90;;;;;;5038253;28;20064;-57
2023/04/24 04:09:16;;;;;;;16.45;12.07;;;10.40;99.90;;;;;;5037884;28;20053;-57
2023/04/24 04:11:42;;;;;;;17.50;11.73;;;10.50;99.90;;;;;;5020426;28;20052;-57
2023/04/24 04:14:08;;;;;;;17.25;12.18;;;10.10;99.90;;;;;;5037832;28;20534;-57
2023/04/24 04:16:33;;;;;;;18.67;12.55;;;10.20;99.90;;;;;;5037790;28;20050;-64
2023/04/24 04:18:59;;;;;;;14.57;10.73;;;10.40;99.90;;;;;;5037805;28;20052;-60
2023/04/24 04:21:26;;;;;;;16.77;11.05;;;10.00;99.90;;;;;;5037960;28;20049;-60
2023/04/24 04:23:52;;;;;;;15.73;11.27;;;10.50;99.90;;;;;;5020514;28;20060;-60
2023/04/24 04:26:19;;;;;;;15.65;11.25;;;10.20;99.90;;;;;;5037972;28;20397;-59
2023/04/24 04:28:44;;;;;;;15.05;10.90;;;10.30;99.90;;;;;;5037775;28;20048;-58
2023/04/24 04:31:10;;;;;;;11.10;7.55;;;10.50;99.90;;;;;;5037805;28;20077;-59
2023/04/24 04:33:37;;;;;;;10.77;6.45;;;10.40;99.90;;;;;;5037658;28;20060;-57
2023/04/24 04:36:03;;;;;;;11.85;6.50;;;10.10;99.90;;;;;;5037625;28;20042;-58
2023/04/24 04:38:29;;;;;;;8.75;5.20;;;10.00;99.90;;;;;;5037537;28;20044;-58
2023/04/24 04:40:58;;;;;;;8.38;4.55;;;10.10;99.90;;;;;;5037458;28;20049;-58
2023/04/24 04:43:24;;;;;;;6.88;3.60;;;10.00;99.90;;;;;;5037765;28;20042;-58
2023/04/24 04:45:55;;;;;;;6.90;3.08;;;10.10;99.90;;;;;;5037856;28;20052;-58
2023/04/24 04:48:22;;;;;;;5.90;2.53;;;10.20;99.90;;;;;;5037355;28;20051;-58
2023/04/24 04:50:47;;;;;;;5.95;3.10;;;10.10;99.90;;;;;;5037370;28;20037;-58
2023/04/24 04:53:13;;;;;;;7.35;3.40;;;9.90;99.90;;;;;;5037362;28;20042;-59
2023/04/24 04:55:39;;;;;;;7.63;3.58;;;9.90;99.90;;;;;;5037504;28;20041;-61
2023/04/24 04:58:04;;;;;;;6.85;3.42;;;10.10;99.90;;;;;;5037324;28;20046;-60
2023/04/24 05:00:35;;;;;;;7.20;3.75;;;9.90;99.90;;;;;;5037224;28;20862;-64
2023/04/24 05:03:01;;;;;;;7.05;3.35;;;9.70;99.90;;;;;;5037171;28;20045;-66
2023/04/24 05:05:27;;;;;;;7.72;3.22;;;10.00;99.90;;;;;;5019398;28;20060;-63
2023/04/24 05:07:52;;;;;;;5.53;2.60;;;10.20;99.90;;;;;;5037030;28;20113;-64
2023/04/24 05:10:18;;;;;;;6.70;2.72;;;9.50;99.90;;;;;;5037051;28;20053;-65
2023/04/24 05:12:44;;;;;;;7.97;3.58;;;9.70;99.90;;;;;;5037392;28;20109;-60
2023/04/24 05:15:10;;;;;;;7.50;3.65;;;10.20;99.90;;;;;;5019630;28;20110;-60
2023/04/24 05:17:36;;;;;;;7.50;4.22;;;9.40;99.90;;;;;;5019214;28;20061;-61
2023/04/24 05:20:05;;;;;;;9.65;4.72;;;10.00;99.90;;;;;;5037487;28;20115;-61
2023/04/24 05:22:31;;;;;;;8.15;3.92;;;9.40;99.90;;;;;;5037213;28;20533;-62
2023/04/24 05:24:57;;;;;;;6.90;3.42;;;10.20;99.90;;;;;;5037059;28;20049;-62
2023/04/24 05:27:24;;;;;;;7.10;2.90;;;9.90;99.90;;;;;;5037379;28;20045;-62
2023/04/24 05:29:49;;;;;;;7.28;3.03;;;9.50;99.90;;;;;;5037222;28;20101;-61
2023/04/24 05:32:15;;;;;;;8.10;3.58;;;10.30;99.90;;;;;;5019146;28;20085;-60
2023/04/24 05:34:40;;;;;;;7.47;3.50;;;9.30;99.90;;;;;;5019614;28;20064;-60
2023/04/24 05:37:09;;;;;;;8.40;3.13;;;9.20;99.90;;;;;;5037261;28;20045;-61
2023/04/24 05:39:35;;;;;;;7.25;3.75;;;9.90;99.90;;;;;;5036767;28;20112;-60
2023/04/24 05:42:01;;;;;;;8.23;3.42;;;9.30;99.90;;;;;;5036973;28;20045;-59
2023/04/24 05:44:27;;;;;;;7.90;3.72;;;9.30;99.90;;;;;;5037322;28;20037;-58
2023/04/24 05:46:55;;;;;;;6.72;3.92;;;9.80;99.90;;;;;;5036996;28;20057;-59
2023/04/24 05:49:20;;;;;;;6.57;3.20;;;9.70;99.90;;;;;;5035669;28;20064;-58
2023/04/24 05:51:46;;;;;;;8.32;3.22;;;10.10;99.90;;;;;;5037515;28;20053;-58
2023/04/24 05:54:12;;;;;;;6.07;3.10;;;9.40;99.90;;;;;;5037095;28;20053;-57
2023/04/24 05:56:38;;;;;;;6.53;3.00;;;9.20;99.90;;;;;;5037277;28;20045;-57
2023/04/24 05:59:03;;;;;;;9.63;3.20;;;10.10;99.90;;;;;;5036959;28;20081;-57
2023/04/24 06:01:29;;;;;;;9.38;3.80;;;9.80;99.90;;;;;;5037042;28;20048;-57
2023/04/24 06:03:55;;;;;;;9.02;3.78;;;9.40;99.90;;;;;;5035625;28;20046;-59
2023/04/24 06:06:21;;;;;;;9.68;5.30;;;9.40;99.90;;;;;;5037248;28;20046;-59
2023/04/24 06:08:46;;;;;;;10.40;4.40;;;9.60;99.90;;;;;;5018858;28;20115;-60
2023/04/24 06:11:12;;;;;;;7.40;4.68;;;10.10;99.90;;;;;;5037254;28;20037;-57
2023/04/24 06:13:38;;;;;;;9.38;4.85;;;9.30;99.90;;;;;;5036854;28;20081;-57
2023/04/24 06:16:04;;;;;;;9.00;4.78;;;10.20;99.90;;;;;;5036956;28;20535;-57
2023/04/24 06:18:30;;;;;;;8.48;5.05;;;9.30;99.90;;;;;;5036516;28;20113;-57
2023/04/24 06:20:56;;;;;;;8.85;5.22;;;9.40;99.90;;;;;;5036703;28;20061;-57
2023/04/24 06:23:21;;;;;;;9.18;5.25;;;10.10;99.90;;;;;;5036533;28;20503;-57
2023/04/24 06:25:47;;;;;;;9.25;5.32;;;10.20;99.90;;;;;;5036538;28;20052;-57
2023/04/24 06:28:13;;;;;;;8.73;4.53;;;9.40;99.90;;;;;;5036665;28;20060;-57
2023/04/24 06:30:39;;;;;;;8.35;4.40;;;10.20;99.90;;;;;;5036209;28;20088;-57
2023/04/24 06:33:04;;;;;;;7.85;4.13;;;10.20;99.90;;;;;;5036608;28;20049;-57
2023/04/24 06:35:30;;;;;;;7.43;3.72;;;9.50;99.90;;;;;;5036449;28;20041;-57
2023/04/24 06:37:56;;;;;;;9.15;3.78;;;9.90;99.90;;;;;;5035956;28;20072;-58
2023/04/24 06:40:22;;;;;;;8.18;3.17;;;10.10;99.90;;;;;;5036555;28;20057;-57
2023/04/24 06:42:48;;;;;;;6.22;2.97;;;9.60;99.90;;;;;;5036370;28;20056;-57
2023/04/24 06:45:13;;;;;;;6.82;2.58;;;9.60;99.90;;;;;;5018581;28;20489;-57
2023/04/24 06:47:39;;;;;;;7.53;2.88;;;9.50;99.90;;;;;;5018756;28;20053;-57
2023/04/24 06:50:05;;;;;;;6.60;2.70;;;9.60;99.90;;;;;;5036079;28;20064;-57
2023/04/24 06:52:35;;;;;;;6.35;2.33;;;9.90;99.90;;;;;;5036156;28;20081;-57
2023/04/24 06:55:04;;;;;;;8.27;2.50;;;9.60;99.90;;;;;;5036062;28;20093;-57
2023/04/24 06:57:30;;;;;;;5.85;2.40;;;10.00;99.90;;;;;;5036324;28;20482;-57
2023/04/24 06:59:56;;;;;;;5.65;2.20;;;9.80;99.90;;;;;;5035380;28;20088;-58
2023/04/24 07:02:22;;;;;;;7.55;2.70;;;9.90;99.90;;;;;;5035122;28;20080;-57
2023/04/24 07:04:48;;;;;;;9.02;2.70;;;9.50;99.90;;;;;;5035886;28;20077;-57
2023/04/24 07:07:14;;;;;;;6.75;3.28;;;9.90;99.90;;;;;;5035979;28;20045;-59
2023/04/24 07:09:42;;;;;;;7.47;2.67;;;9.80;99.90;;;;;;5035590;28;20041;-59
2023/04/24 07:12:10;;;;;;;9.55;2.67;;;9.40;99.90;;;;;;5035615;28;20183;-57
2023/04/24 07:14:36;;;;;;;6.30;2.70;;;9.40;99.90;;;;;;5035171;28;20555;-57
2023/04/24 07:17:03;;;;;;;7.93;2.20;;;9.70;99.90;;;;;;5035460;28;20060;-57
2023/04/24 07:19:29;;;;;;;7.85;2.60;;;9.30;99.90;;;;;;5035139;28;20080;-57
2023/04/24 07:21:55;;;;;;;7.63;2.45;;;9.40;99.90;;;;;;5035635;28;20042;-57
2023/04/24 07:24:21;;;;;;;7.18;2.30;;;9.60;99.90;;;;;;5035112;28;20781;-57
2023/04/24 07:26:46;;;;;;;7.25;2.08;;;9.60;99.90;;;;;;5035527;28;20045;-59
2023/04/24 07:29:13;;;;;;;6.03;1.85;;;9.40;99.90;;;;;;5035203;28;20049;-57
2023/04/24 07:31:40;;;;;;;8.07;2.35;;;9.60;99.90;;;;;;5035193;28;20057;-57
2023/04/24 07:34:06;;;;;;;7.55;3.25;;;9.20;99.90;;;;;;5034977;28;20045;-56
2023/04/24 07:36:32;;;;;;;8.93;4.10;;;9.50;99.90;;;;;;5034751;28;20056;-57
2023/04/24 07:38:57;;;;;;;12.95;5.15;;;9.20;99.90;;;;;;5034879;28;20145;-57
2023/04/24 07:41:24;;;;;;;13.75;6.40;;;9.10;99.90;;;;;;5035070;28;20045;-57
2023/04/24 07:43:49;;;;;;;15.00;8.43;;;9.30;99.90;;;;;;5034954;28;20164;-57
2023/04/24 07:46:15;;;;;;;16.65;9.23;;;9.20;99.90;;;;;;5034687;28;20116;-58
2023/04/24 07:48:41;;;;;;;14.82;9.50;;;9.40;99.90;;;;;;5034175;28;20049;-57
2023/04/24 07:51:09;;;;;;;22.13;9.50;;;9.10;99.90;;;;;;5034514;28;20542;-57
2023/04/24 07:53:35;;;;;;;18.23;9.15;;;9.00;99.90;;;;;;5034822;28;20057;-57
2023/04/24 07:56:01;;;;;;;21.95;12.25;;;9.20;99.90;;;;;;5034665;28;20832;-56
2023/04/24 07:58:26;;;;;;;23.52;13.65;;;9.40;99.90;;;;;;5034910;28;20407;-57
2023/04/24 08:00:52;;;;;;;26.52;13.90;;;9.00;99.90;;;;;;5033953;28;20045;-57
2023/04/24 08:03:19;;;;;;;27.15;12.95;;;9.10;99.90;;;;;;5034006;28;20041;-57
2023/04/24 08:05:45;;;;;;;25.40;12.98;;;9.30;99.90;;;;;;5034900;28;20409;-57
2023/04/24 08:08:11;;;;;;;29.35;13.85;;;8.90;99.90;;;;;;5034739;28;20060;-57
2023/04/24 08:10:36;;;;;;;25.88;13.60;;;9.20;99.90;;;;;;5016894;28;20101;-56
2023/04/24 08:13:02;;;;;;;23.50;12.85;;;9.20;99.90;;;;;;5034347;28;20581;-56
2023/04/24 08:15:28;;;;;;;21.63;12.55;;;8.80;99.90;;;;;;5034748;28;20476;-57
2023/04/24 08:17:54;;;;;;;23.58;13.00;;;9.10;99.90;;;;;;5034386;28;20062;-56
2023/04/24 08:20:19;;;;;;;22.38;13.10;;;9.10;99.90;;;;;;5034523;28;20050;-57
2023/04/24 08:22:47;;;;;;;23.38;12.38;;;9.10;99.90;;;;;;5034705;28;20092;-57
2023/04/24 08:25:13;;;;;;;20.13;11.75;;;9.10;99.90;;;;;;5033855;28;20081;-56
2023/04/24 08:27:38;;;;;;;20.80;12.63;;;8.70;99.90;;;;;;5034599;28;20184;-56
2023/04/24 08:30:05;;;;;;;21.45;11.05;;;9.00;99.90;;;;;;5034711;28;20188;-56
2023/04/24 08:32:30;;;;;;;19.63;11.07;;;8.80;99.90;;;;;;5034255;28;20119;-56
2023/04/24 08:34:57;;;;;;;21.20;12.00;;;8.70;99.90;;;;;;5034361;28;20057;-56
2023/04/24 08:37:23;;;;;;;23.55;11.75;;;8.50;99.90;;;;;;5033691;28;20045;-56
2023/04/24 08:39:49;;;;;;;21.27;10.98;;;8.60;99.90;;;;;;5034494;28;20060;-56
2023/04/24 08:42:17;;;;;;;23.17;12.30;;;8.60;99.90;;;;;;5016416;28;20058;-57
2023/04/24 08:44:44;;;;;;;21.50;12.93;;;8.60;99.90;;;;;;5015419;28;20355;-56
2023/04/24 08:47:10;;;;;;;22.20;11.18;;;8.60;99.90;;;;;;5033827;28;20044;-56
2023/04/24 08:49:37;;;;;;;19.42;11.27;;;8.70;99.90;;;;;;5033433;28;20089;-55
2023/04/24 08:52:04;;;;;;;16.63;10.57;;;8.60;99.90;;;;;;5034133;28;20045;-56
2023/04/24 08:54:31;;;;;;;22.75;11.48;;;8.60;99.90;;;;;;5016050;28;20049;-55
2023/04/24 08:57:03;;;;;;;19.70;10.65;;;8.70;99.90;;;;;;5033543;28;20049;-56
2023/04/24 08:59:29;;;;;;;20.85;9.73;;;8.80;99.90;;;;;;5033355;28;20080;-56
2023/04/24 09:01:55;;;;;;;17.05;9.48;;;8.70;99.90;;;;;;5032910;28;20126;-56
2023/04/24 09:04:24;;;;;;;14.40;8.57;;;8.70;99.90;;;;;;5033904;28;20049;-56
2023/04/24 09:06:57;;;;;;;14.98;7.93;;;8.90;99.90;;;;;;5033407;28;20046;-58
2023/04/24 09:09:24;;;;;;;13.65;8.23;;;8.90;99.90;;;;;;5033154;28;20097;-58
2023/04/24 09:11:50;;;;;;;12.20;7.82;;;8.80;99.90;;;;;;5033089;28;20045;-59
2023/04/24 09:14:17;;;;;;;13.32;7.82;;;9.00;99.90;;;;;;5033915;28;20046;-58
2023/04/24 09:16:43;;;;;;;13.50;8.00;;;9.10;99.90;;;;;;5035686;28;20065;-58
2023/04/24 09:19:09;;;;;;;12.43;7.35;;;8.90;99.90;;;;;;5036074;28;20127;-58
2023/04/24 09:21:36;;;;;;;15.32;7.38;;;9.10;99.90;;;;;;5036744;28;20080;-58
2023/04/24 09:24:07;;;;;;;16.30;7.65;;;9.00;99.90;;;;;;5020321;28;20049;-58
2023/04/24 09:26:35;;;;;;;15.32;7.18;;;8.90;99.90;;;;;;5040247;28;20056;-58
2023/04/24 09:29:02;;;;;;;15.60;6.30;;;8.90;99.90;;;;;;5040823;28;20077;-58
2023/04/24 09:31:29;;;;;;;14.27;6.80;;;8.90;99.90;;;;;;5040578;28;20052;-59
2023/04/24 09:34:05;;;;;;;15.15;6.00;;;8.80;99.90;;;;;;5039323;28;20057;-58
2023/04/24 09:36:39;;;;;;;13.68;6.10;;;8.80;99.90;;;;;;5040278;28;20043;-59
2023/04/24 09:39:15;;;;;;;14.98;5.30;;;8.80;99.90;;;;;;5039950;28;20041;-58
2023/04/24 09:41:47;;;;;;;13.55;5.97;;;9.00;99.90;;;;;;5039852;28;20539;-56
2023/04/24 09:44:16;;;;;;;16.40;5.20;;;8.90;99.90;;;;;;5040089;28;20045;-56
2023/04/24 09:46:44;;;;;;;10.55;5.00;;;9.10;99.90;;;;;;5039662;28;20042;-56
2023/04/24 09:49:18;;;;;;;9.13;4.78;;;9.10;99.90;;;;;;5040142;28;20037;-56
2023/04/24 09:51:44;;;;;;;10.85;4.45;;;9.20;99.90;;;;;;5039845;28;20120;-55
2023/04/24 09:54:20;;;;;;;12.20;4.60;;;9.30;99.90;;;;;;5040406;28;20041;-56
2023/04/24 09:56:49;;;;;;;10.18;3.35;;;9.50;99.90;;;;;;5022296;28;20045;-59
2023/04/24 09:59:16;;;;;;;13.65;4.30;;;9.40;99.90;;;;;;5021572;28;20473;-59
2023/04/24 10:01:44;;;;;;;12.90;3.80;;;9.50;99.90;;;;;;5040161;28;20045;-58
2023/04/24 10:04:17;;;;;;;10.55;3.28;;;9.60;99.90;;;;;;5040091;28;20041;-59
2023/04/24 10:06:43;;;;;;;9.25;4.03;;;9.70;99.90;;;;;;5039053;28;20055;-56
2023/04/24 10:09:11;;;;;;;9.43;3.83;;;9.80;99.90;;;;;;5039465;28;20117;-56
2023/04/24 10:11:37;;;;;;;10.38;4.00;;;9.90;99.90;;;;;;5039784;28;20073;-56
2023/04/24 10:14:03;;;;;;;10.63;3.42;;;9.90;99.90;;;;;;5039627;28;20046;-56
2023/04/24 10:16:31;;;;;;;15.10;3.67;;;9.80;99.90;;;;;;5039549;28;20045;-56
2023/04/24 10:19:00;;;;;;;10.23;3.63;;;9.70;99.90;;;;;;5039781;28;20057;-54
2023/04/24 10:21:26;;;;;;;12.80;4.45;;;9.90;99.90;;;;;;5039754;28;20125;-56
2023/04/24 10:23:53;;;;;;;11.43;4.20;;;9.70;99.90;;;;;;5039508;28;20050;-56
2023/04/24 10:26:20;;;;;;;8.85;2.88;;;9.70;99.90;;;;;;5039124;28;20041;-57
2023/04/24 10:28:47;;;;;;;12.30;3.58;;;9.70;99.90;;;;;;5039468;28;20762;-56
2023/04/24 10:31:14;;;;;;;14.27;4.43;;;9.60;99.90;;;;;;5039453;28;20053;-56
2023/04/24 10:33:45;;;;;;;10.73;3.15;;;9.60;99.90;;;;;;5038642;28;20093;-56
2023/04/24 10:36:12;;;;;;;8.60;3.45;;;9.60;99.90;;;;;;5039026;28;20139;-56
2023/04/24 10:38:41;;;;;;;8.38;2.60;;;9.80;99.90;;;;;;5038947;28;20037;-56
2023/04/24 10:41:16;;;;;;;7.50;2.90;;;9.60;99.90;;;;;;5039367;28;20038;-56
2023/04/24 10:43:42;;;;;;;7.20;2.90;;;9.60;99.90;;;;;;5038652;28;20077;-56
2023/04/24 10:46:10;;;;;;;8.55;2.40;;;9.70;99.90;;;;;;5038794;28;20045;-56
2023/04/24 10:48:41;;;;;;;8.15;2.92;;;9.60;99.90;;;;;;5038891;28;20061;-55
2023/04/24 10:51:11;;;;;;;10.50;3.05;;;9.80;99.90;;;;;;5039403;28;20029;-56
2023/04/24 10:53:37;;;;;;;10.63;2.90;;;9.80;99.90;;;;;;5038819;28;20045;-55
2023/04/24 10:56:05;;;;;;;10.18;2.90;;;9.90;99.90;;;;;;5038646;28;20428;-56
2023/04/24 10:58:46;;;;;;;13.52;2.58;;;9.80;99.90;;;;;;5020439;28;20045;-58
2023/04/24 11:01:26;;;;;;;13.13;3.05;;;9.80;99.90;;;;;;5037480;28;20038;-58
2023/04/24 11:03:56;;;;;;;8.93;2.97;;;9.70;99.90;;;;;;5038569;28;20157;-56
2023/04/24 11:06:43;;;;;;;9.73;2.40;;;9.60;99.90;;;;;;5038458;28;20049;-57
2023/04/24 11:09:13;;;;;;;8.25;2.22;;;9.60;99.90;;;;;;5036127;28;20064;-57
2023/04/24 11:11:45;;;;;;;8.25;2.08;;;9.60;99.90;;;;;;5036639;28;20120;-57
2023/04/24 11:14:13;;;;;;;9.02;2.38;;;9.60;99.90;;;;;;5038793;28;20056;-56
2023/04/24 11:16:51;;;;;;;9.35;2.35;;;9.70;99.90;;;;;;5036918;28;20050;-56
2023/04/24 11:19:25;;;;;;;7.78;2.60;;;9.70;99.90;;;;;;5021954;28;20514;-56
2023/04/24 11:22:01;;;;;;;10.68;2.28;;;9.50;99.90;;;;;;5018780;28;20106;-57
2023/04/24 11:24:37;;;;;;;14.00;2.95;;;9.50;99.90;;;;;;5001419;28;20085;-57
2023/04/24 11:27:02;;;;;;;8.15;2.30;;;9.50;99.90;;;;;;5018477;28;20042;-56
2023/04/24 11:29:48;;;;;;;11.20;2.35;;;9.40;99.90;;;;;;5018684;28;20052;-56
2023/04/24 11:32:27;;;;;;;6.68;2.10;;;9.40;99.90;;;;;;5019172;28;20049;-57
2023/04/24 11:34:58;;;;;;;10.57;2.28;;;9.50;99.90;;;;;;5018898;28;20046;-56
2023/04/24 11:37:29;;;;;;;10.20;2.03;;;9.60;99.90;;;;;;5018765;28;20057;-56
2023/04/24 11:39:57;;;;;;;11.35;3.15;;;9.60;99.90;;;;;;5018964;28;20077;-55
2023/04/24 11:42:25;;;;;;;9.85;2.47;;;9.70;99.90;;;;;;5018514;28;20038;-56
2023/04/24 11:44:55;;;;;;;9.60;2.30;;;9.70;99.90;;;;;;5010999;28;20425;-56
2023/04/24 11:47:30;;;;;;;7.25;1.90;;;9.90;99.90;;;;;;5006972;28;20046;-56
2023/04/24 11:49:56;;;;;;;8.57;1.90;;;9.80;99.90;;;;;;5007605;28;20073;-55
2023/04/24 11:52:22;;;;;;;7.82;1.67;;;9.70;99.90;;;;;;5007282;28;20060;-56
2023/04/24 11:54:49;;;;;;;9.63;2.10;;;9.60;99.90;;;;;;5006683;28;20046;-55
2023/04/24 11:57:16;;;;;;;10.98;2.53;;;9.30;99.90;;;;;;5007407;28;20073;-56
2023/04/24 11:59:42;;;;;;;7.85;2.05;;;9.20;99.90;;;;;;5006927;28;20034;-55
2023/04/24 12:02:08;;;;;;;10.48;2.17;;;9.30;99.90;;;;;;4989049;28;20053;-56
2023/04/24 12:04:43;;;;;;;7.88;2.13;;;9.10;99.90;;;;;;5006947;28;20076;-58
2023/04/24 12:07:09;;;;;;;6.00;1.73;;;9.30;99.90;;;;;;5007680;28;20056;-57
2023/04/24 12:09:42;;;;;;;4.47;1.65;;;9.20;99.90;;;;;;4989029;28;20053;-56
2023/04/24 12:12:08;;;;;;;6.05;1.75;;;9.30;99.90;;;;;;5006775;28;20054;-56
2023/04/24 12:14:49;;;;;;;9.50;1.67;;;9.40;99.90;;;;;;5006595;28;20518;-56
2023/04/24 12:17:16;;;;;;;5.72;1.50;;;9.30;99.90;;;;;;5006790;28;20033;-57
2023/04/24 12:19:50;;;;;;;4.32;1.40;;;9.50;99.90;;;;;;5024374;28;20060;-56
2023/04/24 12:22:16;;;;;;;4.88;1.70;;;9.70;99.90;;;;;;5025972;28;20412;-56
2023/04/24 12:25:01;;;;;;;4.25;1.30;;;9.80;99.90;;;;;;5007840;28;20515;-56
2023/04/24 12:27:31;;;;;;;6.97;1.35;;;9.80;99.90;;;;;;5025984;28;20034;-56
2023/04/24 12:29:58;;;;;;;4.38;1.13;;;9.70;99.90;;;;;;5026609;28;21182;-56
2023/04/24 12:32:27;;;;;;;6.60;1.40;;;9.70;99.90;;;;;;5026078;28;20052;-57
2023/04/24 12:34:54;;;;;;;9.52;1.92;;;9.70;99.90;;;;;;5025930;28;20037;-56
2023/04/24 12:37:22;;;;;;;3.95;1.30;;;9.60;99.90;;;;;;5025854;28;20041;-57
2023/04/24 12:40:08;;;;;;;6.90;1.50;;;9.40;99.90;;;;;;5027759;28;20045;-57
2023/04/24 12:42:35;;;;;;;6.57;1.40;;;9.50;99.90;;;;;;5030482;28;20037;-55
2023/04/24 12:45:06;;;;;;;5.45;1.38;;;9.50;99.90;;;;;;5010224;28;20041;-56
2023/04/24 12:47:33;;;;;;;3.83;1.30;;;9.40;99.90;;;;;;5034145;28;20853;-56